createdAt,value
2018-05-25T00:01:42.977Z,94.50
2018-05-25T00:04:09.176Z,94.50
2018-05-25T00:06:35.391Z,94.50
2018-05-25T00:09:02.604Z,94.90
2018-05-25T00:11:28.849Z,94.90
2018-05-25T00:13:55.068Z,95.10
2018-05-25T00:16:21.344Z,95.10
2018-05-25T00:18:47.556Z,95.00
2018-05-25T00:21:14.538Z,95.60
2018-05-25T00:23:40.746Z,95.50
2018-05-25T00:26:06.999Z,95.50
2018-05-25T00:28:33.240Z,95.60
2018-05-25T00:30:59.531Z,95.70
2018-05-25T00:33:25.826Z,95.80
2018-05-25T00:35:52.064Z,96.10
2018-05-25T00:38:18.294Z,95.90
2018-05-25T00:40:45.268Z,96.00
2018-05-25T00:43:11.483Z,96.00
2018-05-25T00:45:37.727Z,96.10
2018-05-25T00:48:04.264Z,96.20
2018-05-25T00:50:30.803Z,96.30
2018-05-25T00:52:57.462Z,96.50
2018-05-25T00:55:36.063Z,96.40
2018-05-25T00:58:02.296Z,96.40
2018-05-25T01:00:29.444Z,96.40
2018-05-25T01:02:55.687Z,96.30
2018-05-25T01:05:21.901Z,96.00
2018-05-25T01:07:48.127Z,96.10
2018-05-25T01:10:14.395Z,96.30
2018-05-25T01:12:40.652Z,96.50
2018-05-25T01:15:06.907Z,96.80
2018-05-25T01:17:33.223Z,96.70
2018-05-25T01:19:59.619Z,97.00
2018-05-25T01:22:25.859Z,97.20
2018-05-25T01:24:52.855Z,96.80
2018-05-25T01:27:19.076Z,97.10
2018-05-25T01:29:45.334Z,96.90
2018-05-25T01:32:12.167Z,96.80
2018-05-25T01:34:38.416Z,96.80
2018-05-25T01:37:04.651Z,97.20
2018-05-25T01:39:31.928Z,97.20
2018-05-25T01:41:58.299Z,97.20
2018-05-25T01:44:24.528Z,97.10
2018-05-25T01:46:50.750Z,97.20
2018-05-25T01:49:16.978Z,97.00
2018-05-25T01:51:43.381Z,97.20
2018-05-25T01:54:09.668Z,97.20
2018-05-25T01:56:35.916Z,97.20
2018-05-25T01:59:02.156Z,97.00
2018-05-25T02:01:28.361Z,97.00
2018-05-25T02:03:55.310Z,96.70
2018-05-25T02:06:22.276Z,96.60
2018-05-25T02:08:48.481Z,96.60
2018-05-25T02:11:15.510Z,96.30
2018-05-25T02:13:41.683Z,96.30
2018-05-25T02:16:07.986Z,95.90
2018-05-25T02:18:34.938Z,95.90
2018-05-25T02:21:01.890Z,95.70
2018-05-25T02:23:28.101Z,95.70
2018-05-25T02:25:55.049Z,95.70
2018-05-25T02:28:22.051Z,95.70
2018-05-25T02:30:48.253Z,95.70
2018-05-25T02:33:14.492Z,95.60
2018-05-25T02:35:40.727Z,95.50
2018-05-25T02:38:07.044Z,95.50
2018-05-25T02:40:33.326Z,95.80
2018-05-25T02:43:00.312Z,95.10
2018-05-25T02:45:26.572Z,95.10
2018-05-25T02:47:52.777Z,95.10
2018-05-25T02:50:19.018Z,95.10
2018-05-25T02:52:45.270Z,95.20
2018-05-25T02:55:12.249Z,95.10
2018-05-25T02:57:38.481Z,95.00
2018-05-25T03:00:04.878Z,95.00
2018-05-25T03:02:31.073Z,94.80
2018-05-25T03:04:57.294Z,95.10
2018-05-25T03:07:23.496Z,95.00
2018-05-25T03:09:49.814Z,95.00
2018-05-25T03:12:16.039Z,95.00
2018-05-25T03:14:43.342Z,95.00
2018-05-25T03:17:09.559Z,95.00
2018-05-25T03:19:35.780Z,95.10
2018-05-25T03:22:01.977Z,94.90
2018-05-25T03:24:28.244Z,94.90
2018-05-25T03:26:55.272Z,94.90
2018-05-25T03:29:21.555Z,95.20
2018-05-25T03:31:47.776Z,95.00
2018-05-25T03:34:14.008Z,95.00
2018-05-25T03:36:41.300Z,95.10
2018-05-25T03:39:07.545Z,95.00
2018-05-25T03:41:33.824Z,95.00
2018-05-25T03:44:00.794Z,95.30
2018-05-25T03:46:28.474Z,95.00
2018-05-25T03:48:54.698Z,94.90
2018-05-25T03:51:20.964Z,94.90
2018-05-25T03:53:47.187Z,95.00
2018-05-25T03:56:14.118Z,95.10
2018-05-25T03:58:52.718Z,95.20
2018-05-25T04:01:31.235Z,95.20
2018-05-25T04:03:57.734Z,95.10
2018-05-25T04:06:24.020Z,95.10
2018-05-25T04:08:50.259Z,95.10
2018-05-25T04:11:16.468Z,95.20
2018-05-25T04:13:42.741Z,95.20
2018-05-25T04:16:09.742Z,95.50
2018-05-25T04:18:35.962Z,95.40
2018-05-25T04:21:02.209Z,95.20
2018-05-25T04:23:28.713Z,95.20
2018-05-25T04:25:54.981Z,95.20
2018-05-25T04:28:21.957Z,94.70
2018-05-25T04:30:48.947Z,94.90
2018-05-25T04:33:15.127Z,94.80
2018-05-25T04:35:42.119Z,94.70
2018-05-25T04:38:08.356Z,94.60
2018-05-25T04:40:34.867Z,94.50
2018-05-25T04:43:01.173Z,94.40
2018-05-25T04:45:27.407Z,94.20
2018-05-25T04:47:54.396Z,93.90
2018-05-25T04:50:21.384Z,93.80
2018-05-25T04:52:48.436Z,93.30
2018-05-25T04:55:15.507Z,93.20
2018-05-25T04:57:41.711Z,93.10
2018-05-25T05:00:09.298Z,92.70
2018-05-25T05:02:35.542Z,92.70
2018-05-25T05:05:01.800Z,92.60
2018-05-25T05:07:27.973Z,92.30
2018-05-25T05:09:54.206Z,92.30
2018-05-25T05:12:20.481Z,92.10
2018-05-25T05:14:46.703Z,91.60
2018-05-25T05:17:12.949Z,91.80
2018-05-25T05:19:39.963Z,91.50
2018-05-25T05:22:06.207Z,91.50
2018-05-25T05:24:32.426Z,91.40
2018-05-25T05:26:58.668Z,91.50
2018-05-25T05:29:24.881Z,91.30
2018-05-25T05:31:51.379Z,90.90
2018-05-25T05:34:17.641Z,91.10
2018-05-25T05:36:44.068Z,91.10
2018-05-25T05:39:11.399Z,91.10
2018-05-25T05:41:37.823Z,91.10
2018-05-25T05:44:04.152Z,91.10
2018-05-25T05:46:30.763Z,91.20
2018-05-25T05:48:57.080Z,91.00
2018-05-25T05:51:23.288Z,91.00
2018-05-25T05:53:49.512Z,90.70
2018-05-25T05:56:16.129Z,90.70
2018-05-25T05:58:42.409Z,90.80
2018-05-25T06:01:08.611Z,90.80
2018-05-25T06:03:34.857Z,90.70
2018-05-25T06:06:01.126Z,90.50
2018-05-25T06:08:27.423Z,90.30
2018-05-25T06:10:53.676Z,90.40
2018-05-25T06:13:19.915Z,90.40
2018-05-25T06:15:50.896Z,90.30
2018-05-25T06:18:20.399Z,90.10
2018-05-25T06:20:47.866Z,90.00
2018-05-25T06:23:14.111Z,90.40
2018-05-25T06:25:40.324Z,89.40
2018-05-25T06:28:06.574Z,89.20
2018-05-25T06:30:32.805Z,89.30
2018-05-25T06:32:59.047Z,89.00
2018-05-25T06:35:25.284Z,88.40
2018-05-25T06:37:52.360Z,87.30
2018-05-25T06:40:18.613Z,86.50
2018-05-25T06:42:44.842Z,85.00
2018-05-25T06:45:11.060Z,84.20
2018-05-25T06:47:37.265Z,82.60
2018-05-25T06:50:03.528Z,80.60
2018-05-25T06:52:29.784Z,78.70
2018-05-25T06:54:56.069Z,73.80
2018-05-25T06:57:22.323Z,72.20
2018-05-25T06:59:48.600Z,68.50
2018-05-25T07:02:14.835Z,69.00
2018-05-25T07:04:41.068Z,67.80
2018-05-25T07:07:07.355Z,65.50
2018-05-25T07:09:33.938Z,65.70
2018-05-25T07:12:00.749Z,63.50
2018-05-25T07:14:27.207Z,64.90
2018-05-25T07:16:54.958Z,60.20
2018-05-25T07:19:21.206Z,60.30
2018-05-25T07:21:47.449Z,59.20
2018-05-25T07:24:13.672Z,59.50
2018-05-25T07:26:39.870Z,56.30
2018-05-25T07:29:06.100Z,57.50
2018-05-25T07:31:32.353Z,57.60
2018-05-25T07:33:58.600Z,57.20
2018-05-25T07:36:24.834Z,56.00
2018-05-25T07:38:51.772Z,54.60
2018-05-25T07:41:18.777Z,52.10
2018-05-25T07:43:44.992Z,52.10
2018-05-25T07:46:12.224Z,52.60
2018-05-25T07:48:38.460Z,52.60
2018-05-25T07:51:04.735Z,52.00
2018-05-25T07:53:31.167Z,50.70
2018-05-25T07:55:57.403Z,51.70
2018-05-25T07:58:23.617Z,51.50
2018-05-25T08:00:49.892Z,49.30
2018-05-25T08:03:16.170Z,48.10
2018-05-25T08:05:42.435Z,49.40
2018-05-25T08:08:09.412Z,48.00
2018-05-25T08:10:35.680Z,48.00
2018-05-25T08:13:01.957Z,47.30
2018-05-25T08:15:28.195Z,46.80
2018-05-25T08:17:54.465Z,46.60
2018-05-25T08:20:20.685Z,45.40
2018-05-25T08:22:46.911Z,47.00
2018-05-25T08:25:13.152Z,45.00
2018-05-25T08:27:39.491Z,45.00
2018-05-25T08:30:06.452Z,44.40
2018-05-25T08:32:33.629Z,42.20
2018-05-25T08:34:59.969Z,42.10
2018-05-25T08:37:26.235Z,43.90
2018-05-25T08:39:52.492Z,44.30
2018-05-25T08:42:19.471Z,44.70
2018-05-25T08:44:45.716Z,44.80
2018-05-25T08:47:12.806Z,47.30
2018-05-25T08:49:39.755Z,46.80
2018-05-25T08:52:06.728Z,48.00
2018-05-25T08:54:33.007Z,47.90
2018-05-25T08:57:00.017Z,48.30
2018-05-25T08:59:26.250Z,48.30
2018-05-25T09:01:52.572Z,48.80
2018-05-25T09:04:18.844Z,48.50
2018-05-25T09:06:45.886Z,47.00
2018-05-25T09:09:12.147Z,47.00
2018-05-25T09:11:38.399Z,48.30
2018-05-25T09:14:05.670Z,49.50
2018-05-25T09:16:31.911Z,49.40
2018-05-25T09:18:58.152Z,50.00
2018-05-25T09:21:24.409Z,52.60
2018-05-25T09:23:50.812Z,51.50
2018-05-25T09:26:18.045Z,52.00
2018-05-25T09:28:44.281Z,51.90
2018-05-25T09:31:10.518Z,51.30
2018-05-25T09:33:36.944Z,50.70
2018-05-25T09:36:03.167Z,49.70
2018-05-25T09:38:29.420Z,50.40
2018-05-25T09:40:55.635Z,50.90
2018-05-25T09:43:22.669Z,51.10
2018-05-25T09:45:48.916Z,51.10
2018-05-25T09:48:15.164Z,52.50
2018-05-25T09:50:42.137Z,51.10
2018-05-25T09:53:08.348Z,51.00
2018-05-25T09:55:34.594Z,49.80
2018-05-25T09:58:00.808Z,51.20
2018-05-25T10:00:27.087Z,50.30
2018-05-25T10:02:53.368Z,49.90
2018-05-25T10:05:19.642Z,50.90
2018-05-25T10:07:45.863Z,49.70
2018-05-25T10:10:12.137Z,48.50
2018-05-25T10:12:38.492Z,50.50
2018-05-25T10:15:04.765Z,51.70
2018-05-25T10:17:31.003Z,52.10
2018-05-25T10:19:57.298Z,52.10
2018-05-25T10:22:24.315Z,53.90
2018-05-25T10:24:50.521Z,52.50
2018-05-25T10:27:17.485Z,48.40
2018-05-25T10:29:43.750Z,48.30
2018-05-25T10:32:10.013Z,47.60
2018-05-25T10:34:37.176Z,49.30
2018-05-25T10:37:04.150Z,50.20
2018-05-25T10:39:30.464Z,50.20
2018-05-25T10:41:56.806Z,49.40
2018-05-25T10:44:23.082Z,49.30
2018-05-25T10:46:49.281Z,50.00
2018-05-25T10:49:15.524Z,53.20
2018-05-25T10:51:41.824Z,53.10
2018-05-25T10:54:08.080Z,52.20
2018-05-25T10:56:34.337Z,52.60
2018-05-25T10:59:00.557Z,52.00
2018-05-25T11:01:26.772Z,51.70
2018-05-25T11:03:52.991Z,49.20
2018-05-25T11:06:19.200Z,51.40
2018-05-25T11:08:45.466Z,48.70
2018-05-25T11:11:11.777Z,50.20
2018-05-25T11:13:38.058Z,50.60
2018-05-25T11:16:04.305Z,50.60
2018-05-25T11:18:30.612Z,51.20
2018-05-25T11:20:57.612Z,51.80
2018-05-25T11:23:23.956Z,51.70
2018-05-25T11:25:50.204Z,52.20
2018-05-25T11:28:17.224Z,50.70
2018-05-25T11:30:43.593Z,50.70
2018-05-25T11:33:09.841Z,52.50
2018-05-25T11:35:36.141Z,52.30
2018-05-25T11:38:02.435Z,54.30
2018-05-25T11:40:28.706Z,56.40
2018-05-25T11:42:54.976Z,56.10
2018-05-25T11:45:21.196Z,55.00
2018-05-25T11:47:47.461Z,57.80
2018-05-25T11:50:13.716Z,54.50
2018-05-25T11:52:39.980Z,57.50
2018-05-25T11:55:06.363Z,55.90
2018-05-25T11:57:33.563Z,53.20
2018-05-25T11:59:59.866Z,53.20
2018-05-25T12:02:26.145Z,53.60
2018-05-25T12:04:52.401Z,56.00
2018-05-25T12:07:19.416Z,51.80
2018-05-25T12:09:45.644Z,51.80
2018-05-25T12:12:11.996Z,54.10
2018-05-25T12:14:38.258Z,55.90
2018-05-25T12:17:04.525Z,55.70
2018-05-25T12:19:31.528Z,54.80
2018-05-25T12:21:57.724Z,57.40
2018-05-25T12:24:24.729Z,57.50
2018-05-25T12:26:50.967Z,57.40
2018-05-25T12:29:17.191Z,58.30
2018-05-25T12:31:43.445Z,58.50
2018-05-25T12:34:09.778Z,58.30
2018-05-25T12:36:36.843Z,59.40
2018-05-25T12:39:03.833Z,58.30
2018-05-25T12:41:30.062Z,58.20
2018-05-25T12:43:56.366Z,64.80
2018-05-25T12:46:23.269Z,63.30
2018-05-25T12:48:50.892Z,61.60
2018-05-25T12:51:17.082Z,61.60
2018-05-25T12:53:44.054Z,64.40
2018-05-25T12:56:10.368Z,64.40
2018-05-25T12:58:36.670Z,65.30
2018-05-25T13:01:02.892Z,61.40
2018-05-25T13:03:29.148Z,59.80
2018-05-25T13:05:56.196Z,58.90
2018-05-25T13:08:22.502Z,58.90
2018-05-25T13:10:48.864Z,57.30
2018-05-25T13:13:15.141Z,57.50
2018-05-25T13:15:42.095Z,58.80
2018-05-25T13:18:08.337Z,59.10
2018-05-25T13:20:34.547Z,58.80
2018-05-25T13:23:00.788Z,59.20
2018-05-25T13:25:27.012Z,58.10
2018-05-25T13:27:53.501Z,57.90
2018-05-25T13:30:19.761Z,56.60
2018-05-25T13:32:45.968Z,56.10
2018-05-25T13:35:12.218Z,58.30
2018-05-25T13:37:38.460Z,58.70
2018-05-25T13:40:04.749Z,59.10
2018-05-25T13:42:31.026Z,59.90
2018-05-25T13:44:57.246Z,60.70
2018-05-25T13:47:23.484Z,61.00
2018-05-25T13:49:49.744Z,59.60
2018-05-25T13:52:16.035Z,58.70
2018-05-25T13:54:42.233Z,55.50
2018-05-25T13:57:08.449Z,57.60
2018-05-25T13:59:34.725Z,57.00
2018-05-25T14:02:01.006Z,57.00
2018-05-25T14:04:27.532Z,59.10
2018-05-25T14:06:53.772Z,59.10
2018-05-25T14:09:20.790Z,59.20
2018-05-25T14:11:47.052Z,59.20
2018-05-25T14:14:14.043Z,57.90
2018-05-25T14:16:41.065Z,56.70
2018-05-25T14:19:07.328Z,56.60
2018-05-25T14:21:33.545Z,56.80
2018-05-25T14:23:59.916Z,58.50
2018-05-25T14:26:26.155Z,58.20
2018-05-25T14:28:52.388Z,58.50
2018-05-25T14:31:19.387Z,60.50
2018-05-25T14:33:45.595Z,60.30
2018-05-25T14:36:12.592Z,58.20
2018-05-25T14:38:38.880Z,58.20
2018-05-25T14:41:05.835Z,60.10
2018-05-25T14:43:32.785Z,60.10
2018-05-25T14:45:59.033Z,60.00
2018-05-25T14:48:25.304Z,61.30
2018-05-25T14:50:51.561Z,61.00
2018-05-25T14:53:17.823Z,63.50
2018-05-25T14:55:44.124Z,61.20
2018-05-25T14:58:10.426Z,61.40
2018-05-25T15:00:36.708Z,61.40
2018-05-25T15:03:02.960Z,62.50
2018-05-25T15:05:29.961Z,62.30
2018-05-25T15:07:56.200Z,62.30
2018-05-25T15:10:22.456Z,62.00
2018-05-25T15:12:48.684Z,62.20
2018-05-25T15:15:15.725Z,64.40
2018-05-25T15:17:41.981Z,64.30
2018-05-25T15:20:08.204Z,67.70
2018-05-25T15:22:34.471Z,67.90
2018-05-25T15:25:00.715Z,71.10
2018-05-25T15:27:26.945Z,74.80
2018-05-25T15:29:53.167Z,75.20
2018-05-25T15:32:19.409Z,72.00
2018-05-25T15:34:45.676Z,74.00
2018-05-25T15:37:11.918Z,70.80
2018-05-25T15:39:38.892Z,67.70
2018-05-25T15:42:05.124Z,67.70
2018-05-25T15:44:31.342Z,68.70
2018-05-25T15:46:57.567Z,68.20
2018-05-25T15:49:23.840Z,68.50
2018-05-25T15:51:50.293Z,66.40
2018-05-25T15:54:17.306Z,64.80
2018-05-25T15:56:43.560Z,64.70
2018-05-25T15:59:09.758Z,66.00
2018-05-25T16:01:36.007Z,65.60
2018-05-25T16:04:02.274Z,65.40
2018-05-25T16:06:28.523Z,65.80
2018-05-25T16:08:54.843Z,65.30
2018-05-25T16:11:21.160Z,65.50
2018-05-25T16:13:48.113Z,61.70
2018-05-25T16:16:14.398Z,61.60
2018-05-25T16:18:40.643Z,59.30
2018-05-25T16:21:08.451Z,58.80
2018-05-25T16:23:34.689Z,58.80
2018-05-25T16:26:00.944Z,58.20
2018-05-25T16:28:27.189Z,58.90
2018-05-25T16:30:53.474Z,59.30
2018-05-25T16:33:19.740Z,58.50
2018-05-25T16:35:46.010Z,59.10
2018-05-25T16:38:12.228Z,59.10
2018-05-25T16:40:39.216Z,58.40
2018-05-25T16:43:05.538Z,58.40
2018-05-25T16:45:31.804Z,58.30
2018-05-25T16:47:58.071Z,58.70
2018-05-25T16:50:24.363Z,58.90
2018-05-25T16:52:50.626Z,57.20
2018-05-25T16:55:16.836Z,58.10
2018-05-25T16:57:43.802Z,58.60
2018-05-25T17:00:10.060Z,58.60
2018-05-25T17:02:36.260Z,59.50
2018-05-25T17:05:02.632Z,58.40
2018-05-25T17:07:28.884Z,58.20
2018-05-25T17:09:55.136Z,59.20
2018-05-25T17:12:22.160Z,58.00
2018-05-25T17:14:48.348Z,57.80
2018-05-25T17:17:14.569Z,56.90
2018-05-25T17:19:40.800Z,58.10
2018-05-25T17:22:07.116Z,58.30
2018-05-25T17:24:33.388Z,58.80
2018-05-25T17:26:59.760Z,58.80
2018-05-25T17:29:25.996Z,59.30
2018-05-25T17:31:52.288Z,59.80
2018-05-25T17:34:18.519Z,59.40
2018-05-25T17:36:45.476Z,61.20
2018-05-25T17:39:12.437Z,59.50
2018-05-25T17:41:38.647Z,59.40
2018-05-25T17:44:04.940Z,59.30
2018-05-25T17:46:31.442Z,60.30
2018-05-25T17:48:57.734Z,58.90
2018-05-25T17:51:23.977Z,61.30
2018-05-25T17:53:50.977Z,61.60
2018-05-25T17:56:17.492Z,61.60
2018-05-25T17:58:43.787Z,60.70
2018-05-25T18:01:10.827Z,62.90
2018-05-25T18:03:37.064Z,63.00
2018-05-25T18:06:03.332Z,63.50
2018-05-25T18:08:29.559Z,63.50
2018-05-25T18:10:55.853Z,61.60
2018-05-25T18:13:22.114Z,64.30
2018-05-25T18:15:48.419Z,63.30
2018-05-25T18:18:14.669Z,63.60
2018-05-25T18:20:40.912Z,64.50
2018-05-25T18:23:07.164Z,66.20
2018-05-25T18:25:33.576Z,66.60
2018-05-25T18:27:59.989Z,68.50
2018-05-25T18:30:27.276Z,66.70
2018-05-25T18:32:54.774Z,66.10
2018-05-25T18:35:22.050Z,69.10
2018-05-25T18:37:48.456Z,69.00
2018-05-25T18:40:14.759Z,70.00
2018-05-25T18:42:42.009Z,68.20
2018-05-25T18:45:08.329Z,68.10
2018-05-25T18:47:34.541Z,70.00
2018-05-25T18:50:00.808Z,70.60
2018-05-25T18:52:27.830Z,69.90
2018-05-25T18:54:54.083Z,69.70
2018-05-25T18:57:21.071Z,70.30
2018-05-25T18:59:47.312Z,70.30
2018-05-25T19:02:14.342Z,70.20
2018-05-25T19:04:40.638Z,70.20
2018-05-25T19:07:06.925Z,69.80
2018-05-25T19:09:33.163Z,69.90
2018-05-25T19:11:59.453Z,69.50
2018-05-25T19:14:25.780Z,71.10
2018-05-25T19:16:52.072Z,70.60
2018-05-25T19:19:18.322Z,70.90
2018-05-25T19:21:44.636Z,71.40
2018-05-25T19:24:11.580Z,71.50
2018-05-25T19:26:39.576Z,71.40
2018-05-25T19:29:05.812Z,71.40
2018-05-25T19:31:32.864Z,72.20
2018-05-25T19:34:00.284Z,72.20
2018-05-25T19:36:26.764Z,72.20
2018-05-25T19:38:53.000Z,72.80
2018-05-25T19:41:19.276Z,73.40
2018-05-25T19:43:45.511Z,73.40
2018-05-25T19:46:11.708Z,74.30
2018-05-25T19:48:38.769Z,73.40
2018-05-25T19:51:05.152Z,73.40
2018-05-25T19:53:32.289Z,73.90
2018-05-25T19:55:58.912Z,73.90
2018-05-25T19:58:25.130Z,73.90
2018-05-25T20:00:51.309Z,74.10
2018-05-25T20:03:17.548Z,74.00
2018-05-25T20:05:43.784Z,74.40
2018-05-25T20:08:11.029Z,75.10
2018-05-25T20:10:37.369Z,75.00
2018-05-25T20:13:04.407Z,75.30
2018-05-25T20:15:30.729Z,75.20
2018-05-25T20:17:56.973Z,75.60
2018-05-25T20:20:23.956Z,76.00
2018-05-25T20:22:50.276Z,76.70
2018-05-25T20:25:16.609Z,76.00
2018-05-25T20:27:42.881Z,76.10
2018-05-25T20:30:09.330Z,76.40
2018-05-25T20:32:35.918Z,76.80
2018-05-25T20:35:02.426Z,76.80
2018-05-25T20:37:28.676Z,77.20
2018-05-25T20:39:54.992Z,77.40
2018-05-25T20:42:21.241Z,78.90
2018-05-25T20:44:47.559Z,78.80
2018-05-25T20:47:15.006Z,79.20
2018-05-25T20:49:41.585Z,79.10
2018-05-25T20:52:09.071Z,79.30
2018-05-25T20:54:36.826Z,79.20
2018-05-25T20:57:03.188Z,80.40
2018-05-25T20:59:29.388Z,80.50
2018-05-25T21:01:55.683Z,80.70
2018-05-25T21:04:21.961Z,81.10
2018-05-25T21:06:48.337Z,80.50
2018-05-25T21:09:14.798Z,80.50
2018-05-25T21:11:41.471Z,81.30
2018-05-25T21:14:08.498Z,83.10
2018-05-25T21:16:36.511Z,82.70
2018-05-25T21:19:02.769Z,82.70
2018-05-25T21:21:36.074Z,83.00
2018-05-25T21:24:02.370Z,82.90
2018-05-25T21:26:28.703Z,83.30
2018-05-25T21:28:54.994Z,83.50
2018-05-25T21:31:21.620Z,84.50
2018-05-25T21:33:48.140Z,84.30
2018-05-25T21:36:15.522Z,84.50
2018-05-25T21:38:42.187Z,84.50
2018-05-25T21:41:08.423Z,85.00
2018-05-25T21:43:34.672Z,85.70
2018-05-25T21:46:01.014Z,86.10
2018-05-25T21:48:28.601Z,86.80
2018-05-25T21:50:55.256Z,86.70
2018-05-25T21:53:21.683Z,86.80
2018-05-25T21:55:48.205Z,87.50
2018-05-25T21:58:15.046Z,87.90
2018-05-25T22:00:45.644Z,88.70
2018-05-25T22:03:13.881Z,88.60
2018-05-25T22:05:42.524Z,88.60
2018-05-25T22:08:08.765Z,89.30
2018-05-25T22:10:35.751Z,89.90
2018-05-25T22:13:02.178Z,89.80
2018-05-25T22:15:28.585Z,89.50
2018-05-25T22:17:55.260Z,90.00
2018-05-25T22:20:22.663Z,90.40
2018-05-25T22:22:49.167Z,90.30
2018-05-25T22:25:15.428Z,90.20
2018-05-25T22:27:42.437Z,90.50
2018-05-25T22:30:08.702Z,90.40
2018-05-25T22:32:35.756Z,90.50
2018-05-25T22:35:02.111Z,90.50
2018-05-25T22:37:28.872Z,90.30
2018-05-25T22:39:55.507Z,90.70
2018-05-25T22:42:34.425Z,90.60
2018-05-25T22:45:13.008Z,90.80
2018-05-25T22:47:51.519Z,90.50
2018-05-25T22:50:30.913Z,90.70
2018-05-25T22:53:03.591Z,90.70
2018-05-25T22:55:30.340Z,90.70
2018-05-25T22:57:57.693Z,90.70
2018-05-25T23:00:24.253Z,90.70
2018-05-25T23:02:51.249Z,90.70
2018-05-25T23:05:17.508Z,90.70
2018-05-25T23:07:43.748Z,91.10
2018-05-25T23:10:10.008Z,91.00
2018-05-25T23:12:36.302Z,91.00
2018-05-25T23:15:03.365Z,91.10
2018-05-25T23:17:29.834Z,91.10
2018-05-25T23:19:56.025Z,91.20
2018-05-25T23:22:23.060Z,91.10
2018-05-25T23:24:50.013Z,90.40
2018-05-25T23:27:16.984Z,90.50
2018-05-25T23:29:43.272Z,90.50
2018-05-25T23:32:10.977Z,90.20
2018-05-25T23:34:38.076Z,90.20
2018-05-25T23:37:04.351Z,90.10
2018-05-25T23:39:30.621Z,90.20
2018-05-25T23:41:56.837Z,90.60
2018-05-25T23:44:23.058Z,90.50
2018-05-25T23:46:49.268Z,90.40
2018-05-25T23:49:15.477Z,90.40
2018-05-25T23:51:42.456Z,90.20
2018-05-25T23:54:08.769Z,90.20
2018-05-25T23:56:35.083Z,90.30
2018-05-25T23:59:02.067Z,90.50
